createdAt,value
2019-04-20T00:03:41.704Z,9.90
2019-04-20T00:06:21.386Z,9.97
2019-04-20T00:09:08.820Z,9.63
2019-04-20T00:11:58.977Z,8.83
2019-04-20T00:14:32.028Z,9.70
2019-04-20T00:17:09.537Z,10.47
2019-04-20T00:19:53.836Z,10.77
2019-04-20T00:26:21.428Z,10.87
2019-04-20T00:29:16.045Z,9.83
2019-04-20T00:31:51.435Z,9.77
2019-04-20T00:34:23.060Z,10.37
2019-04-20T00:37:00.173Z,10.50
2019-04-20T00:39:40.973Z,9.10
2019-04-20T00:42:32.525Z,10.17
2019-04-20T00:45:10.722Z,10.17
2019-04-20T00:47:55.598Z,10.23
2019-04-20T00:50:44.559Z,8.70
2019-04-20T00:53:21.738Z,9.87
2019-04-20T00:55:52.959Z,9.50
2019-04-20T00:58:46.282Z,9.67
2019-04-20T01:01:37.870Z,9.30
2019-04-20T01:04:15.052Z,8.60
2019-04-20T01:07:11.286Z,8.03
2019-04-20T01:09:58.383Z,8.83
2019-04-20T01:13:06.821Z,9.30
2019-04-20T01:15:51.629Z,8.40
2019-04-20T01:18:24.058Z,13.30
2019-04-20T01:21:10.020Z,21.07
2019-04-20T01:23:51.243Z,27.57
2019-04-20T01:26:29.307Z,35.93
2019-04-20T01:29:21.795Z,44.10
2019-04-20T01:32:05.766Z,39.60
2019-04-20T01:34:47.164Z,27.37
2019-04-20T01:37:31.744Z,24.23
2019-04-20T01:40:01.098Z,34.13
2019-04-20T01:42:40.361Z,33.50
2019-04-20T01:45:27.391Z,33.40
2019-04-20T01:48:04.424Z,42.53
2019-04-20T01:50:55.020Z,41.87
2019-04-20T01:54:02.558Z,47.77
2019-04-20T01:56:40.370Z,36.27
2019-04-20T02:02:56.695Z,23.17
2019-04-20T02:05:35.499Z,14.33
2019-04-20T02:08:18.343Z,19.50
2019-04-20T02:10:59.210Z,19.80
2019-04-20T02:13:44.401Z,19.90
2019-04-20T02:16:28.846Z,15.87
2019-04-20T02:19:21.636Z,14.87
2019-04-20T02:22:01.612Z,12.30
2019-04-20T02:24:27.939Z,10.20
2019-04-20T02:27:08.433Z,13.30
2019-04-20T02:30:13.491Z,8.47
2019-04-20T02:33:16.604Z,10.30
2019-04-20T02:36:22.164Z,10.87
2019-04-20T02:39:30.887Z,10.47
2019-04-20T02:44:41.803Z,10.53
2019-04-20T02:47:27.667Z,10.43
2019-04-20T02:52:49.007Z,10.27
2019-04-20T02:55:32.313Z,9.87
2019-04-20T02:58:10.231Z,15.80
2019-04-20T03:00:39.569Z,18.47
2019-04-20T03:03:15.935Z,21.97
2019-04-20T03:05:58.305Z,28.00
2019-04-20T03:08:43.050Z,26.67
2019-04-20T03:11:29.389Z,27.67
2019-04-20T03:14:09.598Z,19.70
2019-04-20T03:16:50.734Z,16.30
2019-04-20T03:19:28.824Z,18.07
2019-04-20T03:22:21.377Z,21.30
2019-04-20T03:25:05.033Z,15.70
2019-04-20T03:31:36.654Z,12.90
2019-04-20T03:34:00.752Z,13.03
2019-04-20T03:36:42.912Z,14.10
2019-04-20T03:39:15.091Z,14.60
2019-04-20T03:41:42.860Z,14.83
2019-04-20T03:44:23.712Z,15.07
2019-04-20T03:47:05.420Z,18.03
2019-04-20T03:50:06.295Z,13.70
2019-04-20T03:52:49.733Z,15.40
2019-04-20T03:55:44.759Z,15.70
2019-04-20T03:58:47.162Z,13.70
2019-04-20T04:05:08.902Z,12.47
2019-04-20T04:07:42.305Z,12.10
2019-04-20T04:10:31.706Z,11.03
2019-04-20T04:13:00.949Z,13.40
2019-04-20T04:15:48.347Z,13.23
2019-04-20T04:18:29.791Z,11.75
2019-04-20T04:21:09.845Z,10.60
2019-04-20T04:24:02.412Z,10.30
2019-04-20T04:26:42.842Z,10.17
2019-04-20T04:29:40.117Z,9.73
2019-04-20T04:32:23.829Z,9.83
2019-04-20T04:34:52.633Z,10.23
2019-04-20T04:37:37.556Z,10.07
2019-04-20T04:40:27.819Z,9.63
2019-04-20T04:43:04.303Z,10.93
2019-04-20T04:45:27.248Z,10.57
2019-04-20T04:48:13.205Z,10.83
2019-04-20T04:50:44.532Z,10.60
2019-04-20T04:53:36.739Z,9.80
2019-04-20T04:56:28.525Z,10.60
2019-04-20T04:59:08.981Z,9.80
2019-04-20T05:01:51.965Z,10.00
2019-04-20T05:05:10.303Z,9.27
2019-04-20T05:07:49.573Z,9.13
2019-04-20T05:10:14.139Z,8.43
2019-04-20T05:12:54.810Z,7.80
2019-04-20T05:15:49.548Z,8.57
2019-04-20T05:18:41.303Z,11.73
2019-04-20T05:24:48.475Z,10.90
2019-04-20T05:27:59.080Z,10.07
2019-04-20T05:30:24.573Z,12.00
2019-04-20T05:33:09.166Z,12.13
2019-04-20T05:36:09.979Z,13.10
2019-04-20T05:39:17.282Z,9.10
2019-04-20T05:41:28.583Z,13.20
2019-04-20T05:44:12.699Z,9.27
2019-04-20T05:47:06.943Z,8.83
2019-04-20T05:49:45.286Z,8.83
2019-04-20T05:52:43.445Z,9.57
2019-04-20T05:55:15.621Z,10.50
2019-04-20T05:58:03.604Z,10.70
2019-04-20T06:00:40.792Z,10.63
2019-04-20T06:03:20.344Z,10.40
2019-04-20T06:06:00.895Z,11.93
2019-04-20T06:09:05.703Z,12.70
2019-04-20T06:12:07.603Z,13.47
2019-04-20T06:14:47.086Z,13.30
2019-04-20T06:17:52.732Z,12.50
2019-04-20T06:20:47.706Z,12.93
2019-04-20T06:23:53.153Z,12.97
2019-04-20T06:29:56.897Z,10.23
2019-04-20T06:32:39.032Z,9.33
2019-04-20T06:35:30.567Z,8.87
2019-04-20T06:38:09.995Z,9.03
2019-04-20T06:40:56.618Z,8.83
2019-04-20T06:43:36.815Z,10.10
2019-04-20T06:46:14.846Z,9.43
2019-04-20T06:48:53.472Z,9.60
2019-04-20T06:51:40.995Z,8.87
2019-04-20T06:54:40.823Z,9.07
2019-04-20T06:57:30.414Z,8.50
2019-04-20T07:00:10.173Z,8.80
2019-04-20T07:05:22.300Z,9.47
2019-04-20T07:08:29.733Z,8.70
2019-04-20T07:11:03.918Z,9.00
2019-04-20T07:13:27.151Z,11.20
2019-04-20T07:22:51.114Z,7.70
2019-04-20T07:25:37.407Z,7.90
2019-04-20T07:28:24.500Z,9.20
2019-04-20T07:31:05.145Z,7.95
2019-04-20T07:33:40.795Z,8.90
2019-04-20T07:36:28.274Z,7.80
2019-04-20T07:39:07.843Z,8.60
2019-04-20T07:41:54.725Z,10.10
2019-04-20T07:44:34.279Z,8.50
2019-04-20T07:47:24.375Z,9.33
2019-04-20T07:49:49.716Z,9.20
2019-04-20T07:52:20.020Z,11.47
2019-04-20T07:55:33.928Z,9.00
2019-04-20T07:57:55.163Z,10.23
2019-04-20T08:00:55.772Z,10.97
2019-04-20T08:03:39.048Z,14.43
2019-04-20T08:06:38.091Z,9.17
2019-04-20T08:09:28.081Z,7.97
2019-04-20T08:12:22.062Z,11.97
2019-04-20T08:15:12.204Z,10.27
2019-04-20T08:20:29.456Z,8.30
2019-04-20T08:23:06.209Z,8.70
2019-04-20T08:25:44.599Z,8.20
2019-04-20T08:32:17.953Z,9.17
2019-04-20T08:35:22.211Z,8.30
2019-04-20T08:38:20.676Z,9.27
2019-04-20T08:40:46.370Z,7.67
2019-04-20T08:43:38.199Z,9.37
2019-04-20T08:46:05.299Z,9.03
2019-04-20T08:48:51.939Z,8.90
2019-04-20T08:51:31.791Z,8.67
2019-04-20T08:54:14.166Z,11.17
2019-04-20T08:56:44.824Z,8.83
2019-04-20T08:59:18.942Z,8.70
2019-04-20T09:02:07.152Z,8.10
2019-04-20T09:04:48.987Z,8.87
2019-04-20T09:07:26.766Z,8.10
2019-04-20T09:10:30.858Z,8.70
2019-04-20T09:13:02.277Z,8.70
2019-04-20T09:15:29.966Z,9.30
2019-04-20T09:18:22.793Z,9.10
2019-04-20T09:21:04.379Z,7.77
2019-04-20T09:23:58.018Z,8.50
2019-04-20T09:26:44.312Z,8.10
2019-04-20T09:29:16.915Z,8.50
2019-04-20T09:32:11.336Z,9.67
2019-04-20T09:35:01.107Z,8.23
2019-04-20T09:37:47.167Z,8.80
2019-04-20T09:40:51.396Z,8.50
2019-04-20T09:43:36.882Z,7.20
2019-04-20T09:46:17.961Z,8.00
2019-04-20T09:49:06.412Z,6.67
2019-04-20T09:51:57.505Z,7.17
2019-04-20T09:54:42.816Z,7.60
2019-04-20T09:57:26.770Z,7.70
2019-04-20T10:00:05.606Z,8.37
2019-04-20T10:02:36.080Z,9.10
2019-04-20T10:05:02.002Z,7.77
2019-04-20T10:07:56.899Z,7.70
2019-04-20T10:10:51.240Z,8.00
2019-04-20T10:13:34.682Z,8.00
2019-04-20T10:16:15.653Z,7.67
2019-04-20T10:18:56.925Z,7.20
2019-04-20T10:21:38.199Z,7.90
2019-04-20T10:24:18.885Z,7.87
2019-04-20T10:27:00.734Z,8.10
2019-04-20T10:29:41.711Z,7.93
2019-04-20T10:32:25.106Z,9.10
2019-04-20T10:35:04.488Z,9.00
2019-04-20T10:37:49.453Z,8.77
2019-04-20T10:40:29.572Z,8.00
2019-04-20T10:43:16.344Z,8.20
2019-04-20T10:46:04.706Z,8.13
2019-04-20T10:48:49.015Z,9.00
2019-04-20T10:51:27.671Z,9.50
2019-04-20T10:54:07.085Z,8.50
2019-04-20T10:56:47.877Z,8.50
2019-04-20T10:59:27.801Z,8.50
2019-04-20T11:02:08.003Z,9.10
2019-04-20T11:04:48.552Z,8.90
2019-04-20T11:07:28.389Z,8.43
2019-04-20T11:10:17.902Z,10.10
2019-04-20T11:12:50.611Z,9.97
2019-04-20T11:15:32.403Z,8.63
2019-04-20T11:18:13.342Z,9.17
2019-04-20T11:20:53.510Z,8.63
2019-04-20T11:23:34.094Z,9.00
2019-04-20T11:26:16.070Z,9.30
2019-04-20T11:28:56.089Z,9.17
2019-04-20T11:31:41.629Z,8.47
2019-04-20T11:34:23.570Z,8.97
2019-04-20T11:37:01.392Z,8.97
2019-04-20T11:39:41.187Z,8.20
2019-04-20T11:42:21.736Z,8.70
2019-04-20T11:45:02.799Z,9.20
2019-04-20T11:47:43.451Z,9.80
2019-04-20T11:50:23.598Z,13.20
2019-04-20T11:53:03.621Z,18.27
2019-04-20T11:55:46.595Z,9.20
2019-04-20T11:58:27.968Z,8.00
2019-04-20T12:01:35.032Z,7.40
2019-04-20T12:04:42.152Z,8.10
2019-04-20T12:10:49.270Z,7.70
2019-04-20T12:13:44.888Z,8.03
2019-04-20T12:16:25.689Z,7.80
2019-04-20T12:19:06.384Z,8.07
2019-04-20T12:21:47.499Z,7.30
2019-04-20T12:24:29.083Z,6.80
2019-04-20T12:27:10.122Z,7.73
2019-04-20T12:29:52.016Z,8.10
2019-04-20T12:32:36.405Z,8.70
2019-04-20T12:35:14.234Z,10.30
2019-04-20T12:37:54.741Z,6.53
2019-04-20T12:40:35.931Z,8.37
2019-04-20T12:43:17.310Z,7.20
2019-04-20T12:45:58.136Z,7.10
2019-04-20T12:48:39.701Z,6.93
2019-04-20T12:51:26.353Z,6.63
2019-04-20T12:54:02.580Z,7.00
2019-04-20T12:56:44.551Z,7.70
2019-04-20T12:59:25.573Z,7.70
2019-04-20T13:02:07.021Z,7.23
2019-04-20T13:04:46.781Z,6.73
2019-04-20T13:07:27.285Z,8.00
2019-04-20T13:10:07.752Z,7.73
2019-04-20T13:16:30.378Z,6.43
2019-04-20T13:19:31.171Z,6.30
2019-04-20T13:22:12.820Z,7.90
2019-04-20T13:24:54.955Z,7.90
2019-04-20T13:27:36.655Z,7.00
2019-04-20T13:30:17.033Z,7.53
2019-04-20T13:32:57.450Z,7.67
2019-04-20T13:35:38.378Z,7.87
2019-04-20T13:38:20.248Z,7.37
2019-04-20T13:41:00.254Z,7.40
2019-04-20T13:43:40.250Z,7.70
2019-04-20T13:46:20.799Z,7.37
2019-04-20T13:49:01.201Z,7.87
2019-04-20T13:51:41.873Z,8.23
2019-04-20T13:54:26.401Z,7.53
2019-04-20T13:57:05.971Z,7.27
2019-04-20T13:59:52.475Z,7.60
2019-04-20T14:06:02.673Z,6.90
2019-04-20T14:08:43.248Z,9.10
2019-04-20T14:11:23.584Z,7.50
2019-04-20T14:14:06.473Z,7.60
2019-04-20T14:16:47.423Z,7.13
2019-04-20T14:19:29.326Z,7.20
2019-04-20T14:22:10.278Z,8.13
2019-04-20T14:24:51.092Z,7.53
2019-04-20T14:27:32.879Z,7.57
2019-04-20T14:30:15.016Z,8.00
2019-04-20T14:32:56.813Z,7.40
2019-04-20T14:35:36.887Z,12.50
2019-04-20T14:38:17.629Z,12.73
2019-04-20T14:40:58.407Z,8.47
2019-04-20T14:43:39.921Z,54.13
2019-04-20T14:46:20.999Z,7.30
2019-04-20T14:49:02.840Z,7.37
2019-04-20T14:51:43.734Z,7.33
2019-04-20T14:54:23.490Z,7.90
2019-04-20T14:57:05.534Z,7.30
2019-04-20T15:03:22.189Z,7.43
2019-04-20T15:06:05.405Z,6.47
2019-04-20T15:08:45.841Z,7.73
2019-04-20T15:11:27.124Z,7.77
2019-04-20T15:14:07.118Z,8.50
2019-04-20T15:16:48.713Z,6.70
2019-04-20T15:19:49.610Z,6.20
2019-04-20T15:22:35.974Z,6.60
2019-04-20T15:25:16.233Z,7.03
2019-04-20T15:27:56.286Z,8.93
2019-04-20T15:30:36.567Z,8.30
2019-04-20T15:33:16.974Z,6.80
2019-04-20T15:35:57.917Z,7.13
2019-04-20T15:38:38.789Z,7.07
2019-04-20T15:41:21.494Z,6.83
2019-04-20T15:44:03.732Z,7.60
2019-04-20T15:46:45.514Z,6.10
2019-04-20T15:49:26.342Z,8.97
2019-04-20T15:52:07.971Z,6.87
2019-04-20T15:54:49.684Z,6.67
2019-04-20T15:57:31.704Z,6.37
2019-04-20T16:00:14.138Z,6.53
2019-04-20T16:03:21.399Z,6.43
2019-04-20T16:06:23.303Z,6.70
2019-04-20T16:09:06.039Z,6.70
2019-04-20T16:11:48.837Z,6.20
2019-04-20T16:14:29.037Z,6.87
2019-04-20T16:17:12.020Z,5.90
2019-04-20T16:20:00.244Z,6.43
2019-04-20T16:22:34.462Z,6.10
2019-04-20T16:28:45.893Z,6.90
2019-04-20T16:31:26.859Z,8.03
2019-04-20T16:34:07.808Z,6.83
2019-04-20T16:36:48.672Z,6.20
2019-04-20T16:39:30.486Z,7.07
2019-04-20T16:42:12.274Z,6.33
2019-04-20T16:44:53.563Z,6.30
2019-04-20T16:47:36.607Z,7.10
2019-04-20T16:50:17.171Z,7.73
2019-04-20T16:52:57.193Z,6.33
2019-04-20T16:55:37.002Z,6.57
2019-04-20T16:58:19.821Z,6.30
2019-04-20T17:01:01.265Z,6.10
2019-04-20T17:03:51.949Z,11.90
2019-04-20T17:06:26.374Z,6.80
2019-04-20T17:09:06.994Z,7.20
2019-04-20T17:11:47.714Z,6.93
2019-04-20T17:14:29.520Z,10.27
2019-04-20T17:17:09.535Z,7.67
2019-04-20T17:19:49.320Z,6.73
2019-04-20T17:22:29.735Z,5.90
2019-04-20T17:25:10.136Z,9.60
2019-04-20T17:34:58.205Z,23.30
2019-04-20T17:37:27.394Z,22.73
2019-04-20T17:40:31.152Z,10.63
2019-04-20T17:43:02.661Z,8.17
2019-04-20T17:45:45.630Z,6.47
2019-04-20T17:48:28.035Z,6.07
2019-04-20T17:51:17.835Z,5.33
2019-04-20T17:54:06.379Z,5.70
2019-04-20T17:56:52.538Z,5.83
2019-04-20T17:59:20.162Z,5.30
2019-04-20T18:05:38.890Z,5.57
2019-04-20T18:08:28.430Z,4.90
2019-04-20T18:10:58.743Z,5.37
2019-04-20T18:13:32.301Z,4.90
2019-04-20T18:16:40.334Z,5.80
2019-04-20T18:22:50.478Z,5.60
2019-04-20T18:25:56.279Z,6.27
2019-04-20T18:28:18.519Z,6.00
2019-04-20T18:31:19.481Z,5.60
2019-04-20T18:34:52.403Z,5.93
2019-04-20T18:37:52.591Z,5.37
2019-04-20T18:40:39.407Z,5.60
2019-04-20T18:43:18.786Z,11.70
2019-04-20T18:46:14.616Z,10.10
2019-04-20T18:48:52.343Z,11.93
2019-04-20T18:51:21.743Z,12.13
2019-04-20T18:54:18.400Z,10.33
2019-04-20T18:56:54.814Z,10.67
2019-04-20T18:59:40.606Z,9.90
2019-04-20T19:02:23.862Z,9.43
2019-04-20T19:04:48.082Z,9.60
2019-04-20T19:07:53.902Z,10.53
2019-04-20T19:10:36.186Z,11.70
2019-04-20T19:22:52.420Z,7.83
2019-04-20T19:25:36.965Z,7.20
2019-04-20T19:28:21.623Z,7.03
2019-04-20T19:31:11.410Z,7.77
2019-04-20T19:34:01.842Z,7.90
2019-04-20T19:36:33.739Z,8.80
2019-04-20T19:39:21.327Z,7.20
2019-04-20T19:41:55.967Z,8.90
2019-04-20T19:44:44.934Z,8.90
2019-04-20T19:47:32.440Z,8.67
2019-04-20T19:50:27.821Z,8.57
2019-04-20T19:53:03.630Z,9.90
2019-04-20T19:55:31.380Z,9.47
2019-04-20T19:58:18.897Z,9.57
2019-04-20T20:00:49.213Z,9.87
2019-04-20T20:03:28.176Z,10.27
2019-04-20T20:06:11.085Z,10.60
2019-04-20T20:08:55.771Z,11.57
2019-04-20T20:11:39.143Z,10.67
2019-04-20T20:14:24.786Z,8.73
2019-04-20T20:17:13.813Z,11.53
2019-04-20T20:20:06.966Z,11.40
2019-04-20T20:22:32.555Z,10.33
2019-04-20T20:25:05.293Z,10.40
2019-04-20T20:27:52.540Z,9.00
2019-04-20T20:30:35.272Z,8.57
2019-04-20T20:33:28.000Z,7.43
2019-04-20T20:36:03.889Z,8.33
2019-04-20T20:38:31.590Z,8.47
2019-04-20T20:41:26.347Z,7.70
2019-04-20T20:44:26.213Z,7.17
2019-04-20T20:47:10.673Z,8.10
2019-04-20T20:50:03.934Z,8.20
2019-04-20T20:52:36.847Z,7.83
2019-04-20T20:55:20.884Z,7.93
2019-04-20T20:57:59.196Z,7.73
2019-04-20T21:00:43.221Z,7.67
2019-04-20T21:03:22.447Z,7.90
2019-04-20T21:05:57.826Z,8.37
2019-04-20T21:08:44.503Z,7.87
2019-04-20T21:11:25.412Z,8.80
2019-04-20T21:14:04.467Z,8.40
2019-04-20T21:16:53.419Z,8.60
2019-04-20T21:19:50.221Z,8.57
2019-04-20T21:22:17.294Z,7.97
2019-04-20T21:24:54.942Z,9.27
2019-04-20T21:27:36.975Z,8.10
2019-04-20T21:30:24.018Z,8.10
2019-04-20T21:33:03.703Z,7.10
2019-04-20T21:35:47.033Z,7.67
2019-04-20T21:38:31.436Z,8.13
2019-04-20T21:41:04.469Z,8.13
2019-04-20T21:43:51.955Z,7.90
2019-04-20T21:46:39.870Z,7.70
2019-04-20T21:49:43.851Z,8.80
2019-04-20T21:52:23.569Z,8.17
2019-04-20T21:54:58.167Z,8.33
2019-04-20T21:57:43.377Z,8.10
2019-04-20T22:03:26.927Z,8.50
2019-04-20T22:06:16.150Z,8.93
2019-04-20T22:09:25.149Z,7.90
2019-04-20T22:12:11.985Z,8.37
2019-04-20T22:14:59.961Z,8.43
2019-04-20T22:17:36.398Z,8.30
2019-04-20T22:20:26.429Z,8.17
2019-04-20T22:23:10.638Z,8.23
2019-04-20T22:25:56.553Z,7.87
2019-04-20T22:28:24.438Z,8.10
2019-04-20T22:31:06.254Z,8.80
2019-04-20T22:33:48.839Z,9.40
2019-04-20T22:36:35.535Z,9.27
2019-04-20T22:42:16.148Z,9.20
2019-04-20T22:45:03.791Z,9.40
2019-04-20T22:47:32.650Z,9.47
2019-04-20T22:50:38.911Z,9.50
2019-04-20T22:53:31.074Z,10.83
2019-04-20T22:56:18.702Z,10.07
2019-04-20T22:58:55.603Z,10.07
2019-04-20T23:01:33.620Z,9.40
2019-04-20T23:04:06.490Z,9.57
2019-04-20T23:06:50.291Z,9.30
2019-04-20T23:09:34.209Z,9.07
2019-04-20T23:12:17.792Z,8.63
2019-04-20T23:14:58.607Z,8.70
2019-04-20T23:17:43.394Z,10.20
2019-04-20T23:20:26.749Z,9.00
2019-04-20T23:23:02.986Z,8.77
2019-04-20T23:25:43.412Z,9.50
2019-04-20T23:28:24.418Z,8.37
2019-04-20T23:31:09.833Z,8.97
2019-04-20T23:33:47.767Z,9.07
2019-04-20T23:36:37.192Z,9.30
2019-04-20T23:39:13.145Z,9.60
2019-04-20T23:41:58.670Z,9.70
2019-04-20T23:44:48.642Z,9.57
2019-04-20T23:47:56.047Z,10.47
2019-04-20T23:51:01.043Z,9.57
2019-04-20T23:53:39.509Z,9.13
2019-04-20T23:56:05.972Z,9.37
2019-04-20T23:58:51.103Z,9.83
